sensor_id;sensor_type;location;lat;lon;timestamp;P1;durP1;ratioP1;P2;durP2;ratioP2
6485;SDS011;3276;48.490;9.222;2023-11-19T00:02:18;10.60;;;6.23;;
6485;SDS011;3276;48.490;9.222;2023-11-19T00:04:44;10.00;;;6.00;;
6485;SDS011;3276;48.490;9.222;2023-11-19T00:07:09;9.33;;;6.10;;
6485;SDS011;3276;48.490;9.222;2023-11-19T00:09:37;9.47;;;5.80;;
6485;SDS011;3276;48.490;9.222;2023-11-19T00:12:03;7.00;;;5.50;;
6485;SDS011;3276;48.490;9.222;2023-11-19T00:14:29;5.60;;;4.57;;
6485;SDS011;3276;48.490;9.222;2023-11-19T00:16:55;8.57;;;5.50;;
6485;SDS011;3276;48.490;9.222;2023-11-19T00:19:21;6.07;;;4.80;;
6485;SDS011;3276;48.490;9.222;2023-11-19T00:21:46;5.63;;;4.43;;
6485;SDS011;3276;48.490;9.222;2023-11-19T00:24:12;5.60;;;4.40;;
6485;SDS011;3276;48.490;9.222;2023-11-19T00:26:40;7.13;;;5.63;;
6485;SDS011;3276;48.490;9.222;2023-11-19T00:29:06;6.20;;;4.67;;
6485;SDS011;3276;48.490;9.222;2023-11-19T00:31:32;6.30;;;4.30;;
6485;SDS011;3276;48.490;9.222;2023-11-19T00:33:57;7.50;;;3.00;;
6485;SDS011;3276;48.490;9.222;2023-11-19T00:36:23;3.97;;;2.73;;
6485;SDS011;3276;48.490;9.222;2023-11-19T00:38:49;6.03;;;2.60;;
6485;SDS011;3276;48.490;9.222;2023-11-19T00:41:15;5.43;;;3.43;;
6485;SDS011;3276;48.490;9.222;2023-11-19T00:43:42;4.37;;;2.30;;
6485;SDS011;3276;48.490;9.222;2023-11-19T00:46:07;5.17;;;3.20;;
6485;SDS011;3276;48.490;9.222;2023-11-19T00:48:33;2.80;;;1.87;;
6485;SDS011;3276;48.490;9.222;2023-11-19T00:50:59;2.87;;;1.43;;
6485;SDS011;3276;48.490;9.222;2023-11-19T00:53:24;3.10;;;1.50;;
6485;SDS011;3276;48.490;9.222;2023-11-19T00:55:50;2.13;;;1.77;;
6485;SDS011;3276;48.490;9.222;2023-11-19T00:58:15;1.80;;;1.00;;
6485;SDS011;3276;48.490;9.222;2023-11-19T01:00:42;4.57;;;1.50;;
6485;SDS011;3276;48.490;9.222;2023-11-19T01:03:08;1.77;;;1.10;;
6485;SDS011;3276;48.490;9.222;2023-11-19T01:05:34;2.23;;;1.03;;
6485;SDS011;3276;48.490;9.222;2023-11-19T01:07:59;2.00;;;0.93;;
6485;SDS011;3276;48.490;9.222;2023-11-19T01:10:25;1.63;;;0.83;;
6485;SDS011;3276;48.490;9.222;2023-11-19T01:12:51;1.60;;;0.80;;
6485;SDS011;3276;48.490;9.222;2023-11-19T01:15:17;1.50;;;0.70;;
6485;SDS011;3276;48.490;9.222;2023-11-19T01:17:43;1.93;;;0.87;;
6485;SDS011;3276;48.490;9.222;2023-11-19T01:20:09;2.83;;;1.43;;
6485;SDS011;3276;48.490;9.222;2023-11-19T01:22:38;1.87;;;1.20;;
6485;SDS011;3276;48.490;9.222;2023-11-19T01:25:03;1.53;;;0.80;;
6485;SDS011;3276;48.490;9.222;2023-11-19T01:27:30;1.90;;;0.87;;
6485;SDS011;3276;48.490;9.222;2023-11-19T01:29:56;1.70;;;0.90;;
6485;SDS011;3276;48.490;9.222;2023-11-19T01:32:21;2.00;;;1.17;;
6485;SDS011;3276;48.490;9.222;2023-11-19T01:34:49;3.57;;;1.13;;
6485;SDS011;3276;48.490;9.222;2023-11-19T01:37:14;2.03;;;1.13;;
6485;SDS011;3276;48.490;9.222;2023-11-19T01:39:44;2.00;;;1.03;;
6485;SDS011;3276;48.490;9.222;2023-11-19T01:42:10;1.80;;;0.90;;
6485;SDS011;3276;48.490;9.222;2023-11-19T01:44:37;3.00;;;1.23;;
6485;SDS011;3276;48.490;9.222;2023-11-19T01:47:03;1.83;;;0.60;;
6485;SDS011;3276;48.490;9.222;2023-11-19T01:49:29;1.70;;;0.83;;
6485;SDS011;3276;48.490;9.222;2023-11-19T01:51:57;3.03;;;0.90;;
6485;SDS011;3276;48.490;9.222;2023-11-19T01:54:22;1.60;;;0.60;;
6485;SDS011;3276;48.490;9.222;2023-11-19T01:56:48;2.63;;;0.93;;
6485;SDS011;3276;48.490;9.222;2023-11-19T01:59:14;1.50;;;0.70;;
6485;SDS011;3276;48.490;9.222;2023-11-19T02:01:41;1.70;;;0.97;;
6485;SDS011;3276;48.490;9.222;2023-11-19T02:04:07;1.70;;;0.70;;
6485;SDS011;3276;48.490;9.222;2023-11-19T02:06:34;1.70;;;0.70;;
6485;SDS011;3276;48.490;9.222;2023-11-19T02:09:05;1.80;;;0.87;;
6485;SDS011;3276;48.490;9.222;2023-11-19T02:11:33;2.00;;;1.10;;
6485;SDS011;3276;48.490;9.222;2023-11-19T02:13:59;1.40;;;0.67;;
6485;SDS011;3276;48.490;9.222;2023-11-19T02:16:25;2.47;;;0.70;;
6485;SDS011;3276;48.490;9.222;2023-11-19T02:18:51;1.67;;;0.70;;
6485;SDS011;3276;48.490;9.222;2023-11-19T02:21:16;1.70;;;0.77;;
6485;SDS011;3276;48.490;9.222;2023-11-19T02:23:43;1.80;;;0.70;;
6485;SDS011;3276;48.490;9.222;2023-11-19T02:26:20;2.57;;;0.80;;
6485;SDS011;3276;48.490;9.222;2023-11-19T02:29:01;1.40;;;0.60;;
6485;SDS011;3276;48.490;9.222;2023-11-19T02:31:27;1.40;;;0.60;;
6485;SDS011;3276;48.490;9.222;2023-11-19T02:33:53;2.33;;;1.07;;
6485;SDS011;3276;48.490;9.222;2023-11-19T02:36:19;1.93;;;1.00;;
6485;SDS011;3276;48.490;9.222;2023-11-19T02:38:46;1.47;;;0.63;;
6485;SDS011;3276;48.490;9.222;2023-11-19T02:41:12;2.80;;;1.03;;
6485;SDS011;3276;48.490;9.222;2023-11-19T02:43:39;1.50;;;0.63;;
6485;SDS011;3276;48.490;9.222;2023-11-19T02:46:04;1.90;;;0.80;;
6485;SDS011;3276;48.490;9.222;2023-11-19T02:48:33;1.73;;;0.70;;
6485;SDS011;3276;48.490;9.222;2023-11-19T02:51:03;1.70;;;0.80;;
6485;SDS011;3276;48.490;9.222;2023-11-19T02:53:31;1.50;;;0.60;;
6485;SDS011;3276;48.490;9.222;2023-11-19T02:55:57;1.90;;;0.97;;
6485;SDS011;3276;48.490;9.222;2023-11-19T02:58:31;1.50;;;0.90;;
6485;SDS011;3276;48.490;9.222;2023-11-19T03:00:56;1.57;;;0.60;;
6485;SDS011;3276;48.490;9.222;2023-11-19T03:03:26;1.50;;;0.80;;
6485;SDS011;3276;48.490;9.222;2023-11-19T03:06:04;1.30;;;0.57;;
6485;SDS011;3276;48.490;9.222;2023-11-19T03:08:30;1.50;;;0.70;;
6485;SDS011;3276;48.490;9.222;2023-11-19T03:10:55;1.50;;;0.80;;
6485;SDS011;3276;48.490;9.222;2023-11-19T03:13:21;1.93;;;0.80;;
6485;SDS011;3276;48.490;9.222;2023-11-19T03:15:46;1.30;;;0.57;;
6485;SDS011;3276;48.490;9.222;2023-11-19T03:18:12;1.90;;;1.00;;
6485;SDS011;3276;48.490;9.222;2023-11-19T03:20:38;1.30;;;0.60;;
6485;SDS011;3276;48.490;9.222;2023-11-19T03:23:03;1.50;;;0.70;;
6485;SDS011;3276;48.490;9.222;2023-11-19T03:25:29;1.40;;;0.70;;
6485;SDS011;3276;48.490;9.222;2023-11-19T03:28:02;1.40;;;0.60;;
6485;SDS011;3276;48.490;9.222;2023-11-19T03:30:28;1.73;;;0.70;;
6485;SDS011;3276;48.490;9.222;2023-11-19T03:32:55;1.30;;;0.57;;
6485;SDS011;3276;48.490;9.222;2023-11-19T03:35:22;1.80;;;0.80;;
6485;SDS011;3276;48.490;9.222;2023-11-19T03:37:48;1.40;;;0.57;;
6485;SDS011;3276;48.490;9.222;2023-11-19T03:40:13;1.53;;;0.60;;
6485;SDS011;3276;48.490;9.222;2023-11-19T03:42:40;1.30;;;0.50;;
6485;SDS011;3276;48.490;9.222;2023-11-19T03:45:06;1.30;;;0.60;;
6485;SDS011;3276;48.490;9.222;2023-11-19T03:47:35;1.67;;;0.83;;
6485;SDS011;3276;48.490;9.222;2023-11-19T03:50:01;1.40;;;0.60;;
6485;SDS011;3276;48.490;9.222;2023-11-19T03:52:27;1.50;;;0.70;;
6485;SDS011;3276;48.490;9.222;2023-11-19T03:54:53;1.77;;;0.70;;
6485;SDS011;3276;48.490;9.222;2023-11-19T03:57:20;1.57;;;0.60;;
6485;SDS011;3276;48.490;9.222;2023-11-19T03:59:46;2.63;;;0.80;;
6485;SDS011;3276;48.490;9.222;2023-11-19T04:02:11;1.77;;;0.80;;
6485;SDS011;3276;48.490;9.222;2023-11-19T04:04:37;1.30;;;0.50;;
6485;SDS011;3276;48.490;9.222;2023-11-19T04:07:04;1.87;;;0.70;;
6485;SDS011;3276;48.490;9.222;2023-11-19T04:09:30;1.27;;;0.53;;
6485;SDS011;3276;48.490;9.222;2023-11-19T04:11:57;1.47;;;0.70;;
6485;SDS011;3276;48.490;9.222;2023-11-19T04:14:23;1.77;;;0.90;;
6485;SDS011;3276;48.490;9.222;2023-11-19T04:16:49;1.40;;;0.50;;
6485;SDS011;3276;48.490;9.222;2023-11-19T04:19:15;1.90;;;0.80;;
6485;SDS011;3276;48.490;9.222;2023-11-19T04:21:41;1.20;;;0.50;;
6485;SDS011;3276;48.490;9.222;2023-11-19T04:24:08;1.77;;;0.70;;
6485;SDS011;3276;48.490;9.222;2023-11-19T04:26:39;1.77;;;0.60;;
6485;SDS011;3276;48.490;9.222;2023-11-19T04:29:07;1.30;;;0.50;;
6485;SDS011;3276;48.490;9.222;2023-11-19T04:31:34;1.40;;;0.50;;
6485;SDS011;3276;48.490;9.222;2023-11-19T04:33:59;1.23;;;0.43;;
6485;SDS011;3276;48.490;9.222;2023-11-19T04:36:25;1.30;;;0.50;;
6485;SDS011;3276;48.490;9.222;2023-11-19T04:38:51;1.30;;;0.50;;
6485;SDS011;3276;48.490;9.222;2023-11-19T04:41:16;1.30;;;0.50;;
6485;SDS011;3276;48.490;9.222;2023-11-19T04:43:42;1.40;;;0.60;;
6485;SDS011;3276;48.490;9.222;2023-11-19T04:46:09;1.40;;;0.50;;
6485;SDS011;3276;48.490;9.222;2023-11-19T04:48:35;1.37;;;0.50;;
6485;SDS011;3276;48.490;9.222;2023-11-19T04:51:00;1.27;;;0.47;;
6485;SDS011;3276;48.490;9.222;2023-11-19T04:53:26;1.30;;;0.50;;
6485;SDS011;3276;48.490;9.222;2023-11-19T04:55:51;1.23;;;0.40;;
6485;SDS011;3276;48.490;9.222;2023-11-19T04:58:17;1.23;;;0.40;;
6485;SDS011;3276;48.490;9.222;2023-11-19T05:00:42;2.07;;;0.77;;
6485;SDS011;3276;48.490;9.222;2023-11-19T05:03:08;1.33;;;0.40;;
6485;SDS011;3276;48.490;9.222;2023-11-19T05:05:33;1.40;;;0.50;;
6485;SDS011;3276;48.490;9.222;2023-11-19T05:07:59;1.43;;;0.57;;
6485;SDS011;3276;48.490;9.222;2023-11-19T05:10:25;1.50;;;0.83;;
6485;SDS011;3276;48.490;9.222;2023-11-19T05:12:50;1.30;;;0.40;;
6485;SDS011;3276;48.490;9.222;2023-11-19T05:15:16;2.10;;;0.43;;
6485;SDS011;3276;48.490;9.222;2023-11-19T05:17:42;1.30;;;0.40;;
6485;SDS011;3276;48.490;9.222;2023-11-19T05:20:08;1.60;;;0.70;;
6485;SDS011;3276;48.490;9.222;2023-11-19T05:22:41;1.30;;;0.50;;
6485;SDS011;3276;48.490;9.222;2023-11-19T05:25:08;1.47;;;0.50;;
6485;SDS011;3276;48.490;9.222;2023-11-19T05:27:34;1.70;;;0.57;;
6485;SDS011;3276;48.490;9.222;2023-11-19T05:30:01;3.30;;;0.60;;
6485;SDS011;3276;48.490;9.222;2023-11-19T05:32:27;1.30;;;0.50;;
6485;SDS011;3276;48.490;9.222;2023-11-19T05:34:53;1.30;;;0.50;;
6485;SDS011;3276;48.490;9.222;2023-11-19T05:37:19;1.30;;;0.40;;
6485;SDS011;3276;48.490;9.222;2023-11-19T05:39:45;1.40;;;0.50;;
6485;SDS011;3276;48.490;9.222;2023-11-19T05:42:10;1.40;;;0.50;;
6485;SDS011;3276;48.490;9.222;2023-11-19T05:44:36;1.40;;;0.50;;
6485;SDS011;3276;48.490;9.222;2023-11-19T05:47:02;1.50;;;0.60;;
6485;SDS011;3276;48.490;9.222;2023-11-19T05:49:28;1.30;;;0.40;;
6485;SDS011;3276;48.490;9.222;2023-11-19T05:51:54;1.40;;;0.50;;
6485;SDS011;3276;48.490;9.222;2023-11-19T05:54:20;1.40;;;0.50;;
6485;SDS011;3276;48.490;9.222;2023-11-19T05:56:49;1.80;;;0.80;;
6485;SDS011;3276;48.490;9.222;2023-11-19T05:59:15;1.60;;;0.57;;
6485;SDS011;3276;48.490;9.222;2023-11-19T06:01:42;1.47;;;0.53;;
6485;SDS011;3276;48.490;9.222;2023-11-19T06:04:08;1.30;;;0.50;;
6485;SDS011;3276;48.490;9.222;2023-11-19T06:06:35;1.40;;;0.50;;
6485;SDS011;3276;48.490;9.222;2023-11-19T06:09:01;1.30;;;0.40;;
6485;SDS011;3276;48.490;9.222;2023-11-19T06:11:27;1.50;;;0.50;;
6485;SDS011;3276;48.490;9.222;2023-11-19T06:13:53;1.40;;;0.40;;
6485;SDS011;3276;48.490;9.222;2023-11-19T06:16:18;1.40;;;0.50;;
6485;SDS011;3276;48.490;9.222;2023-11-19T06:18:44;1.30;;;0.50;;
6485;SDS011;3276;48.490;9.222;2023-11-19T06:21:10;1.50;;;0.50;;
6485;SDS011;3276;48.490;9.222;2023-11-19T06:23:37;1.40;;;0.50;;
6485;SDS011;3276;48.490;9.222;2023-11-19T06:26:03;1.53;;;0.70;;
6485;SDS011;3276;48.490;9.222;2023-11-19T06:28:30;1.33;;;0.53;;
6485;SDS011;3276;48.490;9.222;2023-11-19T06:30:55;1.60;;;0.50;;
6485;SDS011;3276;48.490;9.222;2023-11-19T06:33:22;1.43;;;0.50;;
6485;SDS011;3276;48.490;9.222;2023-11-19T06:35:49;1.50;;;0.67;;
6485;SDS011;3276;48.490;9.222;2023-11-19T06:38:14;1.60;;;0.63;;
6485;SDS011;3276;48.490;9.222;2023-11-19T06:40:40;1.37;;;0.50;;
6485;SDS011;3276;48.490;9.222;2023-11-19T06:43:06;1.30;;;0.40;;
6485;SDS011;3276;48.490;9.222;2023-11-19T06:45:34;1.50;;;0.60;;
6485;SDS011;3276;48.490;9.222;2023-11-19T06:48:01;1.83;;;0.80;;
6485;SDS011;3276;48.490;9.222;2023-11-19T06:50:28;10.27;;;6.73;;
6485;SDS011;3276;48.490;9.222;2023-11-19T06:52:54;2.70;;;1.30;;
6485;SDS011;3276;48.490;9.222;2023-11-19T06:55:20;2.40;;;1.17;;
6485;SDS011;3276;48.490;9.222;2023-11-19T06:57:45;3.10;;;1.53;;
6485;SDS011;3276;48.490;9.222;2023-11-19T07:00:11;2.10;;;1.00;;
6485;SDS011;3276;48.490;9.222;2023-11-19T07:02:37;3.50;;;2.20;;
6485;SDS011;3276;48.490;9.222;2023-11-19T07:05:02;6.67;;;4.30;;
6485;SDS011;3276;48.490;9.222;2023-11-19T07:07:30;3.40;;;2.33;;
6485;SDS011;3276;48.490;9.222;2023-11-19T07:09:58;2.70;;;1.57;;
6485;SDS011;3276;48.490;9.222;2023-11-19T07:12:24;2.80;;;1.10;;
6485;SDS011;3276;48.490;9.222;2023-11-19T07:14:51;1.97;;;0.90;;
6485;SDS011;3276;48.490;9.222;2023-11-19T07:17:18;1.87;;;0.83;;
6485;SDS011;3276;48.490;9.222;2023-11-19T07:19:45;2.00;;;0.80;;
6485;SDS011;3276;48.490;9.222;2023-11-19T07:22:11;2.00;;;0.90;;
6485;SDS011;3276;48.490;9.222;2023-11-19T07:24:38;1.80;;;0.93;;
6485;SDS011;3276;48.490;9.222;2023-11-19T07:27:05;2.10;;;1.40;;
6485;SDS011;3276;48.490;9.222;2023-11-19T07:29:31;2.17;;;0.83;;
6485;SDS011;3276;48.490;9.222;2023-11-19T07:31:57;2.00;;;0.93;;
6485;SDS011;3276;48.490;9.222;2023-11-19T07:34:22;2.10;;;0.90;;
6485;SDS011;3276;48.490;9.222;2023-11-19T07:36:49;3.40;;;1.60;;
6485;SDS011;3276;48.490;9.222;2023-11-19T07:39:15;2.43;;;1.40;;
6485;SDS011;3276;48.490;9.222;2023-11-19T07:41:40;3.63;;;1.60;;
6485;SDS011;3276;48.490;9.222;2023-11-19T07:44:06;2.40;;;0.90;;
6485;SDS011;3276;48.490;9.222;2023-11-19T07:46:31;5.50;;;2.20;;
6485;SDS011;3276;48.490;9.222;2023-11-19T07:48:57;2.90;;;1.47;;
6485;SDS011;3276;48.490;9.222;2023-11-19T07:51:23;1.80;;;0.80;;
6485;SDS011;3276;48.490;9.222;2023-11-19T07:53:49;2.87;;;2.20;;
6485;SDS011;3276;48.490;9.222;2023-11-19T07:56:14;3.80;;;2.30;;
6485;SDS011;3276;48.490;9.222;2023-11-19T07:58:40;2.83;;;1.33;;
6485;SDS011;3276;48.490;9.222;2023-11-19T08:01:05;3.80;;;1.30;;
6485;SDS011;3276;48.490;9.222;2023-11-19T08:03:31;2.10;;;0.90;;
6485;SDS011;3276;48.490;9.222;2023-11-19T08:05:59;2.20;;;1.07;;
6485;SDS011;3276;48.490;9.222;2023-11-19T08:08:26;3.70;;;1.20;;
6485;SDS011;3276;48.490;9.222;2023-11-19T08:10:51;2.23;;;1.20;;
6485;SDS011;3276;48.490;9.222;2023-11-19T08:13:18;3.27;;;1.00;;
6485;SDS011;3276;48.490;9.222;2023-11-19T08:15:44;1.90;;;1.00;;
6485;SDS011;3276;48.490;9.222;2023-11-19T08:18:11;1.70;;;0.60;;
6485;SDS011;3276;48.490;9.222;2023-11-19T08:20:36;1.70;;;0.70;;
6485;SDS011;3276;48.490;9.222;2023-11-19T08:23:02;2.53;;;0.80;;
6485;SDS011;3276;48.490;9.222;2023-11-19T08:25:30;2.27;;;1.20;;
6485;SDS011;3276;48.490;9.222;2023-11-19T08:27:58;2.00;;;1.00;;
6485;SDS011;3276;48.490;9.222;2023-11-19T08:30:25;1.70;;;0.63;;
6485;SDS011;3276;48.490;9.222;2023-11-19T08:32:50;1.93;;;0.70;;
6485;SDS011;3276;48.490;9.222;2023-11-19T08:35:16;1.83;;;0.77;;
6485;SDS011;3276;48.490;9.222;2023-11-19T08:37:42;2.27;;;0.80;;
6485;SDS011;3276;48.490;9.222;2023-11-19T08:40:08;1.80;;;0.80;;
6485;SDS011;3276;48.490;9.222;2023-11-19T08:42:34;1.60;;;0.60;;
6485;SDS011;3276;48.490;9.222;2023-11-19T08:45:00;2.00;;;0.93;;
6485;SDS011;3276;48.490;9.222;2023-11-19T08:47:25;3.90;;;1.57;;
6485;SDS011;3276;48.490;9.222;2023-11-19T08:49:51;11.93;;;5.73;;
6485;SDS011;3276;48.490;9.222;2023-11-19T08:52:17;5.10;;;1.93;;
6485;SDS011;3276;48.490;9.222;2023-11-19T08:54:43;1.73;;;0.73;;
6485;SDS011;3276;48.490;9.222;2023-11-19T08:57:08;1.83;;;0.80;;
6485;SDS011;3276;48.490;9.222;2023-11-19T08:59:34;2.27;;;0.97;;
6485;SDS011;3276;48.490;9.222;2023-11-19T09:02:00;2.27;;;1.10;;
6485;SDS011;3276;48.490;9.222;2023-11-19T09:04:26;2.10;;;1.30;;
6485;SDS011;3276;48.490;9.222;2023-11-19T09:06:52;2.43;;;1.00;;
6485;SDS011;3276;48.490;9.222;2023-11-19T09:09:18;2.20;;;0.83;;
6485;SDS011;3276;48.490;9.222;2023-11-19T09:11:43;3.50;;;1.27;;
6485;SDS011;3276;48.490;9.222;2023-11-19T09:14:09;2.27;;;1.03;;
6485;SDS011;3276;48.490;9.222;2023-11-19T09:16:34;3.53;;;1.93;;
6485;SDS011;3276;48.490;9.222;2023-11-19T09:19:00;1.90;;;1.00;;
6485;SDS011;3276;48.490;9.222;2023-11-19T09:21:27;1.77;;;0.80;;
6485;SDS011;3276;48.490;9.222;2023-11-19T09:23:54;3.67;;;1.53;;
6485;SDS011;3276;48.490;9.222;2023-11-19T09:26:20;1.93;;;0.80;;
6485;SDS011;3276;48.490;9.222;2023-11-19T09:28:45;2.00;;;0.87;;
6485;SDS011;3276;48.490;9.222;2023-11-19T09:31:17;1.83;;;0.83;;
6485;SDS011;3276;48.490;9.222;2023-11-19T09:33:43;2.53;;;1.17;;
6485;SDS011;3276;48.490;9.222;2023-11-19T09:36:11;2.30;;;1.03;;
6485;SDS011;3276;48.490;9.222;2023-11-19T09:38:38;2.10;;;0.87;;
6485;SDS011;3276;48.490;9.222;2023-11-19T09:41:09;4.53;;;0.60;;
6485;SDS011;3276;48.490;9.222;2023-11-19T09:43:37;1.97;;;1.00;;
6485;SDS011;3276;48.490;9.222;2023-11-19T09:46:05;1.80;;;0.87;;
6485;SDS011;3276;48.490;9.222;2023-11-19T09:48:33;1.70;;;0.57;;
6485;SDS011;3276;48.490;9.222;2023-11-19T09:51:00;1.60;;;0.50;;
6485;SDS011;3276;48.490;9.222;2023-11-19T09:53:26;1.60;;;0.50;;
6485;SDS011;3276;48.490;9.222;2023-11-19T09:55:52;1.67;;;0.57;;
6485;SDS011;3276;48.490;9.222;2023-11-19T09:58:18;1.83;;;0.77;;
6485;SDS011;3276;48.490;9.222;2023-11-19T10:00:44;1.90;;;0.87;;
6485;SDS011;3276;48.490;9.222;2023-11-19T10:03:10;1.70;;;0.60;;
6485;SDS011;3276;48.490;9.222;2023-11-19T10:05:37;3.13;;;0.90;;
6485;SDS011;3276;48.490;9.222;2023-11-19T10:08:06;2.40;;;0.70;;
6485;SDS011;3276;48.490;9.222;2023-11-19T10:10:33;1.70;;;0.70;;
6485;SDS011;3276;48.490;9.222;2023-11-19T10:12:59;1.70;;;0.73;;
6485;SDS011;3276;48.490;9.222;2023-11-19T10:15:25;1.57;;;0.53;;
6485;SDS011;3276;48.490;9.222;2023-11-19T10:17:58;2.10;;;0.63;;
6485;SDS011;3276;48.490;9.222;2023-11-19T10:20:23;3.20;;;1.57;;
6485;SDS011;3276;48.490;9.222;2023-11-19T10:22:52;2.63;;;1.50;;
6485;SDS011;3276;48.490;9.222;2023-11-19T10:25:27;1.90;;;0.73;;
6485;SDS011;3276;48.490;9.222;2023-11-19T10:27:54;2.50;;;1.00;;
6485;SDS011;3276;48.490;9.222;2023-11-19T10:30:21;2.30;;;1.50;;
6485;SDS011;3276;48.490;9.222;2023-11-19T10:33:03;2.43;;;1.10;;
6485;SDS011;3276;48.490;9.222;2023-11-19T10:35:55;2.70;;;1.37;;
6485;SDS011;3276;48.490;9.222;2023-11-19T10:38:22;2.37;;;1.53;;
6485;SDS011;3276;48.490;9.222;2023-11-19T10:40:48;2.00;;;0.80;;
6485;SDS011;3276;48.490;9.222;2023-11-19T10:43:15;2.00;;;1.10;;
6485;SDS011;3276;48.490;9.222;2023-11-19T10:45:42;2.00;;;0.90;;
6485;SDS011;3276;48.490;9.222;2023-11-19T10:48:08;2.73;;;1.00;;
6485;SDS011;3276;48.490;9.222;2023-11-19T10:50:34;2.53;;;1.50;;
6485;SDS011;3276;48.490;9.222;2023-11-19T10:53:01;6.90;;;2.60;;
6485;SDS011;3276;48.490;9.222;2023-11-19T10:55:28;3.93;;;1.80;;
6485;SDS011;3276;48.490;9.222;2023-11-19T10:57:59;2.57;;;1.43;;
6485;SDS011;3276;48.490;9.222;2023-11-19T11:00:26;2.30;;;0.90;;
6485;SDS011;3276;48.490;9.222;2023-11-19T11:03:18;3.37;;;1.33;;
6485;SDS011;3276;48.490;9.222;2023-11-19T11:05:47;4.47;;;2.23;;
6485;SDS011;3276;48.490;9.222;2023-11-19T11:08:14;2.80;;;0.73;;
6485;SDS011;3276;48.490;9.222;2023-11-19T11:10:42;5.30;;;2.50;;
6485;SDS011;3276;48.490;9.222;2023-11-19T11:13:09;3.90;;;2.37;;
6485;SDS011;3276;48.490;9.222;2023-11-19T11:15:37;3.70;;;1.93;;
6485;SDS011;3276;48.490;9.222;2023-11-19T11:18:03;3.50;;;1.77;;
6485;SDS011;3276;48.490;9.222;2023-11-19T11:20:32;2.33;;;0.97;;
6485;SDS011;3276;48.490;9.222;2023-11-19T11:23:06;3.03;;;1.20;;
6485;SDS011;3276;48.490;9.222;2023-11-19T11:28:56;1.87;;;0.93;;
6485;SDS011;3276;48.490;9.222;2023-11-19T11:37:25;1.63;;;0.60;;
6485;SDS011;3276;48.490;9.222;2023-11-19T11:39:24;2.63;;;0.83;;
6485;SDS011;3276;48.490;9.222;2023-11-19T11:45:06;3.73;;;1.30;;
6485;SDS011;3276;48.490;9.222;2023-11-19T11:50:13;2.30;;;0.93;;
6485;SDS011;3276;48.490;9.222;2023-11-19T11:55:26;7.30;;;3.93;;
6485;SDS011;3276;48.490;9.222;2023-11-19T11:58:02;4.63;;;2.10;;
6485;SDS011;3276;48.490;9.222;2023-11-19T12:03:01;1.80;;;0.87;;
6485;SDS011;3276;48.490;9.222;2023-11-19T12:05:29;2.97;;;1.17;;
6485;SDS011;3276;48.490;9.222;2023-11-19T12:08:02;1.80;;;0.60;;
6485;SDS011;3276;48.490;9.222;2023-11-19T12:10:31;2.20;;;1.10;;
6485;SDS011;3276;48.490;9.222;2023-11-19T12:13:02;1.70;;;0.60;;
6485;SDS011;3276;48.490;9.222;2023-11-19T12:15:32;2.00;;;0.90;;
6485;SDS011;3276;48.490;9.222;2023-11-19T12:17:57;1.90;;;0.80;;
6485;SDS011;3276;48.490;9.222;2023-11-19T12:20:24;2.00;;;0.77;;
6485;SDS011;3276;48.490;9.222;2023-11-19T12:22:51;2.00;;;0.90;;
6485;SDS011;3276;48.490;9.222;2023-11-19T12:25:18;2.20;;;1.07;;
6485;SDS011;3276;48.490;9.222;2023-11-19T12:27:49;1.80;;;0.90;;
6485;SDS011;3276;48.490;9.222;2023-11-19T12:30:26;2.40;;;0.70;;
6485;SDS011;3276;48.490;9.222;2023-11-19T12:32:54;2.20;;;0.93;;
6485;SDS011;3276;48.490;9.222;2023-11-19T12:35:19;2.13;;;0.80;;
6485;SDS011;3276;48.490;9.222;2023-11-19T12:37:46;1.80;;;0.60;;
6485;SDS011;3276;48.490;9.222;2023-11-19T12:40:22;2.27;;;0.70;;
6485;SDS011;3276;48.490;9.222;2023-11-19T12:42:49;1.70;;;0.50;;
6485;SDS011;3276;48.490;9.222;2023-11-19T12:45:19;1.80;;;0.73;;
6485;SDS011;3276;48.490;9.222;2023-11-19T12:47:46;2.20;;;0.87;;
6485;SDS011;3276;48.490;9.222;2023-11-19T12:50:13;2.07;;;0.90;;
6485;SDS011;3276;48.490;9.222;2023-11-19T12:52:39;1.80;;;0.80;;
6485;SDS011;3276;48.490;9.222;2023-11-19T12:55:05;2.23;;;0.87;;
6485;SDS011;3276;48.490;9.222;2023-11-19T12:57:55;2.10;;;0.77;;
6485;SDS011;3276;48.490;9.222;2023-11-19T13:00:21;1.70;;;0.80;;
6485;SDS011;3276;48.490;9.222;2023-11-19T13:02:48;2.10;;;0.70;;
6485;SDS011;3276;48.490;9.222;2023-11-19T13:05:22;2.20;;;0.90;;
6485;SDS011;3276;48.490;9.222;2023-11-19T13:08:05;1.80;;;0.80;;
6485;SDS011;3276;48.490;9.222;2023-11-19T13:10:32;2.20;;;1.40;;
6485;SDS011;3276;48.490;9.222;2023-11-19T13:13:02;2.57;;;1.00;;
6485;SDS011;3276;48.490;9.222;2023-11-19T13:15:33;2.80;;;0.93;;
6485;SDS011;3276;48.490;9.222;2023-11-19T13:18:02;1.70;;;1.00;;
6485;SDS011;3276;48.490;9.222;2023-11-19T13:20:28;1.70;;;0.90;;
6485;SDS011;3276;48.490;9.222;2023-11-19T13:22:58;1.90;;;1.03;;
6485;SDS011;3276;48.490;9.222;2023-11-19T13:25:24;7.83;;;1.13;;
6485;SDS011;3276;48.490;9.222;2023-11-19T13:27:50;2.47;;;1.30;;
6485;SDS011;3276;48.490;9.222;2023-11-19T13:30:16;2.17;;;1.07;;
6485;SDS011;3276;48.490;9.222;2023-11-19T13:32:42;3.30;;;1.43;;
6485;SDS011;3276;48.490;9.222;2023-11-19T13:35:09;1.80;;;0.90;;
6485;SDS011;3276;48.490;9.222;2023-11-19T13:37:35;1.90;;;0.90;;
6485;SDS011;3276;48.490;9.222;2023-11-19T13:40:00;2.97;;;1.10;;
6485;SDS011;3276;48.490;9.222;2023-11-19T13:42:26;2.13;;;1.20;;
6485;SDS011;3276;48.490;9.222;2023-11-19T13:44:52;2.10;;;1.03;;
6485;SDS011;3276;48.490;9.222;2023-11-19T13:47:17;2.97;;;1.40;;
6485;SDS011;3276;48.490;9.222;2023-11-19T13:49:44;2.37;;;1.00;;
6485;SDS011;3276;48.490;9.222;2023-11-19T13:52:10;3.93;;;1.00;;
6485;SDS011;3276;48.490;9.222;2023-11-19T13:54:36;5.27;;;1.00;;
6485;SDS011;3276;48.490;9.222;2023-11-19T13:57:02;1.90;;;1.00;;
6485;SDS011;3276;48.490;9.222;2023-11-19T13:59:29;3.23;;;1.30;;
6485;SDS011;3276;48.490;9.222;2023-11-19T14:01:56;2.03;;;1.00;;
6485;SDS011;3276;48.490;9.222;2023-11-19T14:04:21;2.30;;;1.07;;
6485;SDS011;3276;48.490;9.222;2023-11-19T14:06:47;2.93;;;1.07;;
6485;SDS011;3276;48.490;9.222;2023-11-19T14:09:12;2.90;;;1.40;;
6485;SDS011;3276;48.490;9.222;2023-11-19T14:11:41;2.13;;;1.00;;
6485;SDS011;3276;48.490;9.222;2023-11-19T14:14:07;2.53;;;1.10;;
6485;SDS011;3276;48.490;9.222;2023-11-19T14:16:33;2.10;;;0.80;;
6485;SDS011;3276;48.490;9.222;2023-11-19T14:18:59;7.53;;;1.17;;
6485;SDS011;3276;48.490;9.222;2023-11-19T14:21:25;2.83;;;0.97;;
6485;SDS011;3276;48.490;9.222;2023-11-19T14:23:51;1.80;;;0.83;;
6485;SDS011;3276;48.490;9.222;2023-11-19T14:26:17;2.30;;;0.70;;
6485;SDS011;3276;48.490;9.222;2023-11-19T14:28:43;1.60;;;0.60;;
6485;SDS011;3276;48.490;9.222;2023-11-19T14:31:08;1.80;;;1.00;;
6485;SDS011;3276;48.490;9.222;2023-11-19T14:33:34;2.30;;;0.97;;
6485;SDS011;3276;48.490;9.222;2023-11-19T14:36:01;2.30;;;0.70;;
6485;SDS011;3276;48.490;9.222;2023-11-19T14:38:26;1.80;;;0.87;;
6485;SDS011;3276;48.490;9.222;2023-11-19T14:40:52;2.33;;;1.23;;
6485;SDS011;3276;48.490;9.222;2023-11-19T14:43:18;2.10;;;1.00;;
6485;SDS011;3276;48.490;9.222;2023-11-19T14:45:43;1.70;;;0.70;;
6485;SDS011;3276;48.490;9.222;2023-11-19T14:48:09;1.80;;;0.80;;
6485;SDS011;3276;48.490;9.222;2023-11-19T14:50:35;2.20;;;0.80;;
6485;SDS011;3276;48.490;9.222;2023-11-19T14:53:00;2.30;;;1.00;;
6485;SDS011;3276;48.490;9.222;2023-11-19T14:55:26;2.33;;;0.87;;
6485;SDS011;3276;48.490;9.222;2023-11-19T14:57:52;2.03;;;0.80;;
6485;SDS011;3276;48.490;9.222;2023-11-19T15:00:18;1.70;;;0.60;;
6485;SDS011;3276;48.490;9.222;2023-11-19T15:02:44;2.60;;;1.10;;
6485;SDS011;3276;48.490;9.222;2023-11-19T15:05:10;1.83;;;0.70;;
6485;SDS011;3276;48.490;9.222;2023-11-19T15:07:38;1.80;;;0.80;;
6485;SDS011;3276;48.490;9.222;2023-11-19T15:10:05;2.40;;;0.80;;
6485;SDS011;3276;48.490;9.222;2023-11-19T15:12:36;4.23;;;1.50;;
6485;SDS011;3276;48.490;9.222;2023-11-19T15:15:05;2.40;;;1.10;;
6485;SDS011;3276;48.490;9.222;2023-11-19T15:17:39;2.30;;;1.00;;
6485;SDS011;3276;48.490;9.222;2023-11-19T15:20:05;2.47;;;1.43;;
6485;SDS011;3276;48.490;9.222;2023-11-19T15:22:31;2.00;;;0.93;;
6485;SDS011;3276;48.490;9.222;2023-11-19T15:24:57;1.63;;;0.70;;
6485;SDS011;3276;48.490;9.222;2023-11-19T15:27:22;2.10;;;1.00;;
6485;SDS011;3276;48.490;9.222;2023-11-19T15:29:48;12.43;;;7.97;;
6485;SDS011;3276;48.490;9.222;2023-11-19T15:32:14;8.30;;;4.57;;
6485;SDS011;3276;48.490;9.222;2023-11-19T15:34:39;2.37;;;1.03;;